Data for 08/15/2017

Time Sea-Level Adjusted Pressure Absolute Pressure Temperature Relative Humidity Dew Point   
(mb) (inHg) (mb) (inHg) (C) (F) (%) (C) (F)
00:05 1017 30.03 846 24.98 11.2 52.1 84 8.6 47.5
00:10 1017 30.03 846 24.98 11.1 52 85 8.8 47.8
00:15 1017 30.03 846 24.98 11 51.9 87 8.9 48.1
00:20 1017 30.03 846 24.98 11 51.8 84 8.4 47.1
00:25 1017 30.03 846 24.98 11.1 52 82 8.2 46.7
00:30 1017 30.03 846 24.98 11.2 52.1 81 8.1 46.5
00:35 1017 30.03 846 24.98 11.1 52 81 8 46.5
00:40 1017 30.03 846 24.98 11.2 52.1 80 7.9 46.2
00:45 1017 30.03 846 24.98 11.2 52.1 79 7.7 45.8
00:50 1017 30.03 846 24.98 11.4 52.6 77 7.6 45.7
00:55 1017 30.03 846 24.98 11.6 52.8 76 7.5 45.5
01:00 1017 30.03 846 24.98 12 53.6 74 7.5 45.5
01:05 1016 30 846 24.98 12.3 54.2 74 7.8 46.1
01:10 1016 30 846 24.98 12.4 54.2 72 7.4 45.3
01:15 1016 30 846 24.98 12.3 54.1 77 8.4 47.1
01:20 1016 30 846 24.98 11.5 52.7 75 7.3 45.1
01:25 1016 30 846 24.98 11.8 53.2 77 7.9 46.2
01:30 1017 30.03 846 24.98 11.6 52.9 79 8.1 46.6
01:35 1017 30.03 846 24.98 11.4 52.6 79 7.9 46.2
01:40 1017 30.03 846 24.98 11.5 52.6 78 7.8 46
01:45 1017 30.03 846 24.98 11.5 52.6 79 8 46.3
01:50 1017 30.03 846 24.98 11.4 52.5 78 7.7 45.9
01:55 1017 30.03 846 24.98 11.4 52.5 79 7.9 46.2
02:00 1017 30.03 846 24.98 11.3 52.3 80 7.9 46.2
02:05 1017 30.03 846 24.98 11.3 52.3 81 8.2 46.7
02:10 1017 30.03 846 24.98 11.2 52.2 80 8 46.3
02:15 1017 30.03 846 24.98 11.3 52.3 80 8 46.5
02:20 1017 30.03 846 24.98 11.2 52.1 81 8 46.5
02:25 1017 30.03 846 24.98 11.2 52.2 79 7.7 45.8
02:30 1017 30.03 846 24.98 11.3 52.3 80 7.9 46.3
02:35 1017 30.03 846 24.98 11.1 52 80 7.9 46.2
02:40 1017 30.03 846 24.98 11 51.8 80 7.8 46
02:45 1017 30.03 846 24.98 10.9 51.6 81 7.7 45.9
02:50 1017 30.03 846 24.98 10.9 51.6 80 7.6 45.7
02:55 1017 30.03 846 24.98 10.9 51.7 79 7.5 45.5
03:00 1017 30.03 846 24.98 11 51.8 79 7.5 45.5
03:05 1017 30.03 846 24.98 11 51.8 79 7.5 45.5
03:10 1017 30.03 846 24.98 11 51.8 78 7.3 45.2
03:15 1017 30.03 846 24.98 11 51.8 78 7.3 45.2
03:20 1017 30.03 846 24.98 11 51.8 78 7.4 45.3
03:25 1017 30.03 846 24.98 11.1 51.9 77 7.3 45.1
03:30 1017 30.03 846 24.98 11.1 52 78 7.5 45.4
03:35 1017 30.03 846 24.98 10.9 51.7 78 7.3 45.1
03:40 1017 30.03 846 24.98 10.9 51.5 79 7.3 45.1
03:45 1017 30.03 846 24.98 10.9 51.5 79 7.3 45.2
03:50 1017 30.03 846 24.98 10.9 51.6 78 7.2 45
03:55 1017 30.03 846 24.98 10.9 51.7 77 7.1 44.8
04:00 1017 30.03 846 24.98 10.9 51.6 78 7.2 44.9
04:05 1017 30.03 846 24.98 11 51.7 77 7.1 44.8
04:10 1017 30.03 846 24.98 11.1 51.9 76 7 44.7
04:15 1017 30.03 846 24.98 11.1 51.9 76 7 44.6
04:20 1017 30.03 846 24.98 11.1 51.9 75 6.9 44.4
04:25 1017 30.03 846 24.98 11 51.8 78 7.2 45
04:30 1017 30.03 846 24.98 10.9 51.6 78 7.2 44.9
04:35 1017 30.03 846 24.98 10.8 51.4 78 7.1 44.8
04:40 1017 30.03 846 24.98 10.7 51.3 78 7.2 44.9
04:45 1017 30.03 846 24.98 10.6 51.2 79 7.2 45
04:50 1017 30.03 846 24.98 10.6 51.1 80 7.2 45
04:55 1017 30.03 846 24.98 10.5 51 80 7.2 44.9
05:00 1017 30.03 846 24.98 10.6 51 80 7.2 45
05:05 1017 30.03 846 24.98 10.4 50.7 81 7.3 45.1
05:10 1017 30.03 846 24.98 10.2 50.3 82 7.3 45.2
05:15 1017 30.03 846 24.98 10 50.1 83 7.3 45.1
05:20 1017 30.03 846 24.98 10 50 82 7.2 44.9
05:25 1017 30.03 846 24.98 10.1 50.1 82 7.1 44.7
05:30 1017 30.03 846 24.98 10.1 50.1 82 7.1 44.8
05:35 1017 30.03 846 24.98 10 50 82 7.1 44.8
05:40 1017 30.03 846 24.98 9.9 49.8 83 7.1 44.7
05:45 1017 30.03 846 24.98 9.8 49.6 83 7.1 44.8
05:50 1017 30.03 846 24.98 9.7 49.5 83 7.1 44.7
05:55 1017 30.03 846 24.98 9.8 49.6 83 7 44.6
06:00 1017 30.03 846 24.98 9.9 49.7 82 7 44.6
06:05 1017 30.03 846 24.98 9.9 49.9 82 7.1 44.7
06:10 1017 30.03 846 24.98 10 50.1 82 7.1 44.7
06:15 1017 30.03 846 24.98 10.3 50.6 80 7.1 44.8
06:20 1017 30.03 846 24.98 10.5 50.9 80 7.3 45.1
06:25 1017 30.03 846 24.98 10.5 50.8 80 7.3 45.1
06:30 1017 30.03 847 25.01 10.3 50.5 80 7 44.6
06:35 1017 30.03 847 25.01 10.4 50.7 78 6.8 44.2
06:40 1017 30.03 847 25.01 10.5 50.8 79 7.1 44.7
06:45 1017 30.03 847 25.01 10.4 50.7 80 7.1 44.7
06:50 1017 30.03 847 25.01 10.4 50.8 80 7.1 44.8
06:55 1017 30.03 847 25.01 10.4 50.6 80 7.1 44.8
07:00 1017 30.03 847 25.01 10.5 50.8 80 7.2 44.9
07:05 1017 30.03 847 25.01 10.5 50.9 80 7.3 45.1
07:10 1017 30.03 847 25.01 10.7 51.2 80 7.3 45.2
07:15 1017 30.03 847 25.01 11 51.8 79 7.5 45.5
07:20 1018 30.06 847 25.01 11.1 52 77 7.2 45
07:25 1018 30.06 847 25.01 11.4 52.5 78 7.6 45.7
07:30 1018 30.06 847 25.01 11.6 52.9 77 7.7 45.8
07:35 1018 30.06 847 25.01 11.9 53.4 76 7.7 45.9
07:40 1018 30.06 847 25.01 12.2 54 75 7.9 46.3
07:45 1018 30.06 847 25.01 12.9 55.3 72 8 46.4
07:50 1018 30.06 847 25.01 13.5 56.3 68 7.8 46.1
07:55 1018 30.06 847 25.01 13.5 56.3 68 7.7 45.9
08:00 1018 30.06 847 25.01 13.9 57 63 6.9 44.5
08:05 1018 30.06 847 25.01 14.3 57.7 66 8 46.4
08:10 1018 30.06 847 25.01 14.8 58.6 62 7.6 45.8
08:15 1018 30.06 847 25.01 15 59 62 7.8 46.1
08:20 1018 30.06 847 25.01 15.1 59.2 60 7.4 45.3
08:25 1018 30.06 847 25.01 15.8 60.5 60 8.1 46.5
08:30 1018 30.06 847 25.01 16.1 61.1 60 8.4 47
08:35 1018 30.06 847 25.01 16.5 61.7 56 7.8 46
08:40 1018 30.06 847 25.01 16.9 62.5 56 8.2 46.8
08:45 1018 30.06 847 25.01 16.8 62.2 58 8.5 47.3
08:50 1018 30.06 847 25.01 16.5 61.6 56 7.9 46.2
08:55 1018 30.06 847 25.01 17.1 62.8 50 6.7 44.1
09:00 1018 30.06 847 25.01 16.7 62 51 6.6 43.9
09:05 1018 30.06 847 25.01 17.3 63.1 50 6.8 44.2
09:10 1018 30.06 847 25.01 17 62.6 50 6.5 43.7
09:15 1018 30.06 847 25.01 17.3 63.1 51 7.2 45
09:20 1018 30.06 847 25.01 17 62.6 50 6.5 43.7
09:25 1018 30.06 847 25.01 17.4 63.3 49 6.7 44.1
09:30 1018 30.06 847 25.01 17.7 63.9 46 6 42.8
09:35 1018 30.06 847 25.01 17.8 64 45 5.8 42.5
09:40 1018 30.06 847 25.01 18.1 64.5 45 6 42.8
09:45 1018 30.06 847 25.01 18.2 64.8 44 5.8 42.5
09:50 1018 30.06 847 25.01 18.1 64.6 45 6 42.9
09:55 1018 30.06 847 25.01 18.9 66 41 5.6 42
10:00 1018 30.06 847 25.01 18.9 65.9 42 5.8 42.5
10:05 1018 30.06 847 25.01 19 66.2 41 5.6 42.1
10:10 1018 30.06 847 25.01 19.1 66.4 44 6.7 44
10:15 1018 30.06 847 25.01 19.5 67 39 5.4 41.6
10:20 1018 30.06 847 25.01 20.1 68.2 38 5.5 41.9
10:25 1018 30.06 847 25.01 20.5 68.8 38 6 42.8
10:30 1018 30.06 847 25.01 20.2 68.4 37 5.3 41.6
10:35 1018 30.06 847 25.01 20.6 69.1 36 5.3 41.5
10:40 1017 30.03 847 25.01 20.9 69.5 37 5.6 42.1
10:45 1017 30.03 847 25.01 20.8 69.5 37 5.7 42.3
10:50 1017 30.03 847 25.01 20.9 69.7 35 5.2 41.4
10:55 1017 30.03 847 25.01 20.7 69.2 37 5.8 42.4
11:00 1017 30.03 847 25.01 20.8 69.4 36 5.3 41.5
11:05 1017 30.03 847 25.01 21.3 70.3 34 5.1 41.2
11:10 1017 30.03 846 24.98 21 69.9 35 5.1 41.3
11:15 1017 30.03 846 24.98 20.7 69.3 34 4.3 39.7
11:20 1017 30.03 846 24.98 21.5 70.7 33 4.7 40.4
11:25 1017 30.03 846 24.98 21.1 70 36 5.6 42.1
11:30 1017 30.03 846 24.98 20.5 69 36 5 40.9
11:35 1017 30.03 846 24.98 21.4 70.4 33 4.5 40.1
11:40 1017 30.03 846 24.98 22.3 72.2 31 4.6 40.3
11:45 1017 30.03 846 24.98 21.4 70.6 34 5 41
11:50 1017 30.03 846 24.98 22.2 72 31 4.6 40.2
11:55 1017 30.03 846 24.98 22.9 73.2 31 5.1 41.1
12:00 1017 30.03 846 24.98 22.1 71.8 30 4 39.1
12:05 1017 30.03 846 24.98 23 73.3 27 3.3 37.9
12:10 1017 30.03 846 24.98 23.1 73.6 29 4.5 40.1
12:15 1017 30.03 846 24.98 22.8 73 30 4.4 39.9
12:20 1017 30.03 846 24.98 23.3 74 29 4.4 39.8
12:25 1017 30.03 846 24.98 23.3 73.9 28 3.8 38.8
12:30 1017 30.03 846 24.98 23.3 73.9 28 4.1 39.3
12:35 1017 30.03 846 24.98 23.1 73.5 30 4.8 40.6
12:40 1017 30.03 846 24.98 23.3 73.9 27 3.7 38.6
12:45 1017 30.03 846 24.98 22.8 73 29 4.1 39.4
12:50 1017 30.03 846 24.98 23.5 74.3 28 4.4 39.9
12:55 1017 30.03 846 24.98 23.5 74.2 28 4.3 39.7
13:00 1017 30.03 846 24.98 22.9 73.3 28 3.5 38.3
13:05 1017 30.03 846 24.98 22.7 72.8 28 3.3 38
13:10 1017 30.03 846 24.98 22.7 72.9 28 3.4 38.1
13:15 1017 30.03 846 24.98 23.3 74 30 4.8 40.6
13:20 1017 30.03 846 24.98 22.9 73.3 27 3.4 38.1
13:25 1017 30.03 846 24.98 22.7 72.9 24 1.2 34.1
13:30 1017 30.03 846 24.98 22.4 72.2 23 0.4 32.8
13:35 1016 30 846 24.98 22.8 73.1 21 -0.2 31.6
13:40 1016 30 846 24.98 23.6 74.4 22 1.1 34
13:45 1016 30 846 24.98 23.1 73.6 20 -0.8 30.5
13:50 1016 30 846 24.98 22.6 72.7 21 -0.9 30.4
13:55 1016 30 846 24.98 23.2 73.7 20 -1 30.1
14:00 1016 30 846 24.98 23.1 73.6 19 -1.3 29.7
14:05 1016 30 846 24.98 22.7 72.9 20 -1.2 29.8
14:10 1016 30 845 24.95 22.4 72.3 19 -2.1 28.2
14:15 1016 30 845 24.95 22.4 72.3 21 -0.7 30.8
14:20 1016 30 845 24.95 23.3 73.9 19 -1.1 30
14:25 1016 30 845 24.95 24.3 75.7 20 0.4 32.8
14:30 1016 30 845 24.95 24.1 75.3 20 -0.4 31.3
14:35 1016 30 845 24.95 23.6 74.5 21 0.2 32.4
14:40 1016 30 845 24.95 24 75.2 19 -0.7 30.7
14:45 1016 30 845 24.95 24.2 75.6 21 1 33.7
14:50 1016 30 845 24.95 24 75.3 21 0.6 33.1
14:55 1016 30 845 24.95 24.4 75.9 21 0.6 33
15:00 1016 30 845 24.95 24.7 76.4 20 0.4 32.7
15:05 1016 30 845 24.95 25 77.1 20 1 33.8
15:10 1016 30 845 24.95 25.2 77.4 22 1.9 35.5
15:15 1016 30 845 24.95 24.1 75.4 23 1.6 34.9
15:20 1016 30 845 24.95 24 75.2 24 2.2 35.9
15:25 1016 30 845 24.95 24.2 75.5 23 1.9 35.4
15:30 1016 30 845 24.95 24.1 75.5 21 1 33.8
15:35 1016 30 845 24.95 23.9 75 22 1.3 34.3
15:40 1016 30 845 24.95 24 75.2 23 1.8 35.3
15:45 1016 30 845 24.95 24.5 76.1 21 1.3 34.3
15:50 1016 30 845 24.95 24.1 75.4 22 1.3 34.4
15:55 1016 30 845 24.95 24 75.2 22 1.4 34.5
16:00 1016 30 845 24.95 23.9 75.1 21 0.4 32.7
16:05 1016 30 845 24.95 24.2 75.5 21 0.6 33.1
16:10 1016 30 845 24.95 23.6 74.4 20 -0.8 30.6
16:15 1016 30 845 24.95 23.9 75 20 0 32.1
16:20 1016 30 845 24.95 24.8 76.7 20 0.6 33.1
16:25 1016 30 845 24.95 25.1 77.1 20 0.8 33.4
16:30 1016 30 845 24.95 25.5 77.8 20 1.2 34.1
16:35 1016 30 845 24.95 25.4 77.7 21 1.9 35.4
16:40 1016 30 845 24.95 24.7 76.5 21 0.9 33.5
16:45 1016 30 845 24.95 25 76.9 18 -0.6 30.8
16:50 1016 30 845 24.95 24.7 76.5 18 -1.3 29.7
16:55 1016 30 845 24.95 23.7 74.7 17 -2.3 27.9
17:00 1016 30 845 24.95 24.4 75.8 17 -2.2 28
17:05 1016 30 845 24.95 24.5 76.1 18 -1.2 29.9
17:10 1016 30 845 24.95 23.8 74.8 19 -1.1 30.1
17:15 1016 30 845 24.95 23.8 74.9 18 -1.7 29
17:20 1016 30 845 24.95 24.1 75.3 17 -2.4 27.7
17:25 1016 30 845 24.95 24.1 75.4 18 -1.8 28.8
17:30 1016 30 845 24.95 24 75.1 17 -2.4 27.7
17:35 1016 30 845 24.95 24.1 75.3 18 -1.8 28.8
17:40 1016 30 845 24.95 23.9 75.1 17 -2.6 27.4
17:45 1016 30 845 24.95 24.1 75.4 17 -2.4 27.6
17:50 1016 30 845 24.95 23.9 75 16 -3.2 26.2
17:55 1016 30 845 24.95 23.5 74.2 18 -2.2 28.1
18:00 1016 30 845 24.95 23.1 73.6 15 -4.3 24.2
18:05 1016 30 845 24.95 23.1 73.6 16 -3.9 25
18:10 1016 30 845 24.95 23 73.5 15 -4.6 23.7
18:15 1016 30 845 24.95 23 73.4 16 -4.3 24.2
18:20 1016 30 845 24.95 23.1 73.6 16 -3.8 25.1
18:25 1016 30 845 24.95 23 73.4 15 -4.6 23.8
18:30 1016 30 845 24.95 22.9 73.3 15 -4.7 23.5
18:35 1016 30 845 24.95 22.9 73.3 16 -4.3 24.3
18:40 1016 30 845 24.95 22.8 73.1 16 -4.5 23.9
18:45 1016 30 845 24.95 22.8 73.1 17 -3.4 25.9
18:50 1016 30 845 24.95 22.8 73 15 -5 23
18:55 1016 30 845 24.95 22.8 73 20 -1.4 29.6
19:00 1016 30 845 24.95 22.5 72.6 22 -0.1 31.8
19:05 1016 30 845 24.95 22.2 72 23 0.2 32.3
19:10 1016 30 845 24.95 22.1 71.7 24 0.9 33.6
19:15 1016 30 845 24.95 21.9 71.5 23 -0 31.9
19:20 1016 30 845 24.95 21.8 71.3 27 2.3 36.1
19:25 1016 30 845 24.95 21.1 70 32 4.1 39.4
19:30 1016 30 845 24.95 20.3 68.5 35 4.7 40.4
19:35 1016 30 845 24.95 19.4 67 38 4.8 40.7
19:40 1016 30 845 24.95 18.7 65.6 42 5.6 42.1
19:45 1016 30 845 24.95 18.1 64.7 43 5.3 41.6
19:50 1016 30 845 24.95 17.7 63.9 44 5.4 41.7
19:55 1016 30 845 24.95 17.4 63.4 44 5.2 41.4
20:00 1016 30 846 24.98 17.4 63.3 45 5.3 41.6
20:05 1016 30 846 24.98 17.1 62.7 42 4.3 39.7
20:10 1016 30 846 24.98 16.9 62.4 39 3 37.5
20:15 1016 30 846 24.98 16.8 62.3 37 2.3 36.1
20:20 1017 30.03 846 24.98 17 62.6 38 2.7 36.8
20:25 1017 30.03 846 24.98 16.8 62.2 39 3 37.4
20:30 1017 30.03 846 24.98 16.3 61.4 40 2.9 37.2
20:35 1017 30.03 846 24.98 16.1 60.9 41 2.9 37.3
20:40 1017 30.03 846 24.98 16 60.7 41 2.8 37
20:45 1017 30.03 846 24.98 15.9 60.6 41 2.7 36.9
20:50 1017 30.03 846 24.98 15.8 60.4 41 2.5 36.6
20:55 1017 30.03 846 24.98 15.8 60.4 41 2.5 36.5
21:00 1017 30.03 846 24.98 15.9 60.5 40 2.4 36.4
21:05 1017 30.03 846 24.98 15.8 60.5 41 2.8 37.1
21:10 1017 30.03 846 24.98 15.6 60 43 3 37.3
21:15 1017 30.03 846 24.98 15.3 59.6 44 3.2 37.7
21:20 1017 30.03 846 24.98 15.2 59.4 44 3.1 37.6
21:25 1017 30.03 846 24.98 15 58.9 45 3.2 37.7
21:30 1017 30.03 846 24.98 14.8 58.6 43 2.6 36.6
21:35 1017 30.03 846 24.98 14.9 58.8 43 2.5 36.4
21:40 1017 30.03 846 24.98 15 58.9 42 2.2 36
21:45 1017 30.03 846 24.98 15.1 59.1 42 2.3 36.1
21:50 1017 30.03 846 24.98 15 59 41 2.1 35.7
21:55 1017 30.03 846 24.98 14.9 58.8 43 2.5 36.4
22:00 1017 30.03 846 24.98 14.6 58.3 42 2 35.6
22:05 1017 30.03 846 24.98 14.8 58.6 41 1.6 35
22:10 1017 30.03 847 25.01 15.2 59.3 39 1.3 34.3
22:15 1017 30.03 847 25.01 15.4 59.8 38 1.4 34.5
22:20 1018 30.06 847 25.01 15.4 59.8 38 1.3 34.4
22:25 1018 30.06 847 25.01 15.7 60.2 41 2.4 36.3
22:30 1018 30.06 847 25.01 15.7 60.3 40 2.3 36.1
22:35 1018 30.06 847 25.01 15.8 60.5 39 2 35.6
22:40 1018 30.06 847 25.01 16.4 61.6 38 2.1 35.7
22:45 1018 30.06 847 25.01 15.8 60.5 45 4.2 39.5
22:50 1018 30.06 847 25.01 14.9 58.9 48 4.1 39.4
22:55 1018 30.06 847 25.01 14.6 58.3 48 4 39.1
23:00 1018 30.06 847 25.01 14.4 57.9 46 3.1 37.6
23:05 1018 30.06 847 25.01 14.2 57.6 45 2.7 36.9
23:10 1018 30.06 847 25.01 14.2 57.5 47 3.2 37.7
23:15 1018 30.06 847 25.01 14 57.3 49 3.5 38.2
23:20 1018 30.06 847 25.01 14 57.3 51 4 39.2
23:25 1018 30.06 847 25.01 13.7 56.7 52 4.1 39.4
23:30 1018 30.06 847 25.01 13.6 56.4 51 3.8 38.8
23:35 1018 30.06 847 25.01 13.7 56.7 51 3.9 39
23:40 1018 30.06 847 25.01 13.7 56.6 52 4 39.1
23:45 1018 30.06 847 25.01 13.7 56.6 52 4.1 39.3
23:50 1018 30.06 847 25.01 13.5 56.4 52 4.1 39.3
23:55 1018 30.06 847 25.01 13.1 55.7 54 4.1 39.3
24:00 1018 30.06 847 25.01 12.9 55.2 54 3.9 39.1